createdAt,value
2018-08-18T00:02:54.060Z,14.11
2018-08-18T00:05:58.307Z,14.10
2018-08-18T00:09:02.566Z,14.07
2018-08-18T00:12:10.232Z,14.04
2018-08-18T00:15:14.476Z,14.00
2018-08-18T00:18:18.712Z,13.94
2018-08-18T00:21:22.951Z,13.91
2018-08-18T00:24:27.205Z,13.88
2018-08-18T00:27:31.437Z,13.87
2018-08-18T00:30:35.681Z,13.84
2018-08-18T00:33:39.929Z,13.82
2018-08-18T00:36:44.178Z,13.81
2018-08-18T00:39:48.420Z,13.77
2018-08-18T00:42:52.660Z,13.73
2018-08-18T00:45:56.876Z,13.70
2018-08-18T00:49:01.197Z,13.67
2018-08-18T00:52:05.628Z,13.66
2018-08-18T00:55:09.878Z,13.63
2018-08-18T00:58:19.462Z,13.59
2018-08-18T01:01:23.729Z,13.57
2018-08-18T01:04:27.958Z,13.54
2018-08-18T01:07:33.050Z,13.50
2018-08-18T01:10:37.281Z,13.50
2018-08-18T01:13:41.548Z,13.52
2018-08-18T01:16:49.864Z,13.51
2018-08-18T01:19:55.665Z,13.48
2018-08-18T01:23:01.797Z,13.43
2018-08-18T01:26:06.553Z,13.38
2018-08-18T01:29:15.558Z,13.36
2018-08-18T01:32:19.784Z,13.36
2018-08-18T01:35:23.981Z,13.38
2018-08-18T01:38:28.201Z,13.37
2018-08-18T01:41:32.424Z,13.35
2018-08-18T01:44:36.660Z,13.36
2018-08-18T01:47:40.894Z,13.36
2018-08-18T01:50:45.144Z,13.36
2018-08-18T01:53:50.017Z,13.36
2018-08-18T01:57:12.597Z,13.37
2018-08-18T02:00:28.032Z,13.40
2018-08-18T02:03:32.548Z,13.43
2018-08-18T02:06:36.785Z,13.46
2018-08-18T02:09:41.033Z,13.47
2018-08-18T02:13:07.766Z,13.49
2018-08-18T02:16:11.977Z,13.49
2018-08-18T02:19:17.485Z,13.49
2018-08-18T02:22:22.172Z,13.53
2018-08-18T02:25:26.410Z,13.53
2018-08-18T02:28:31.105Z,13.54
2018-08-18T02:31:35.331Z,13.51
2018-08-18T02:34:39.529Z,13.49
2018-08-18T02:37:43.776Z,13.49
2018-08-18T02:40:48.013Z,13.51
2018-08-18T02:43:52.239Z,13.54
2018-08-18T02:46:57.034Z,13.53
2018-08-18T02:50:01.433Z,13.50
2018-08-18T02:53:21.397Z,13.48
2018-08-18T02:56:30.852Z,13.48
2018-08-18T02:59:35.098Z,13.50
2018-08-18T03:02:39.326Z,13.51
2018-08-18T03:05:43.590Z,13.51
2018-08-18T03:08:47.829Z,13.52
2018-08-18T03:11:52.071Z,13.51
2018-08-18T03:14:56.949Z,13.51
2018-08-18T03:18:01.201Z,13.47
2018-08-18T03:21:05.578Z,13.46
2018-08-18T03:24:18.069Z,13.43
2018-08-18T03:27:22.334Z,13.41
2018-08-18T03:30:29.346Z,13.41
2018-08-18T03:33:33.624Z,13.40
2018-08-18T03:36:46.743Z,13.38
2018-08-18T03:39:51.058Z,13.39
2018-08-18T03:42:55.331Z,13.39
2018-08-18T03:45:59.604Z,13.36
2018-08-18T03:49:03.929Z,13.36
2018-08-18T03:52:08.888Z,13.36
2018-08-18T03:55:13.201Z,13.36
2018-08-18T03:58:17.541Z,13.34
2018-08-18T04:01:45.375Z,13.32
2018-08-18T04:04:54.925Z,13.31
2018-08-18T04:07:59.485Z,13.31
2018-08-18T04:11:03.793Z,13.31
2018-08-18T04:14:08.271Z,13.30
2018-08-18T04:17:45.812Z,13.28
2018-08-18T04:20:50.077Z,13.28
2018-08-18T04:23:54.344Z,13.30
2018-08-18T04:26:58.769Z,13.30
2018-08-18T04:30:03.130Z,13.36
2018-08-18T04:33:07.436Z,13.37
2018-08-18T04:36:11.717Z,13.40
2018-08-18T04:39:16.134Z,13.42
2018-08-18T04:42:20.411Z,13.45
2018-08-18T04:45:24.720Z,13.48
2018-08-18T04:48:31.434Z,13.51
2018-08-18T04:51:35.805Z,13.56
2018-08-18T04:54:40.106Z,13.59
2018-08-18T04:57:44.813Z,13.65
2018-08-18T05:00:49.102Z,13.71
2018-08-18T05:04:02.270Z,13.77
2018-08-18T05:07:07.755Z,13.86
2018-08-18T05:10:13.073Z,13.98
2018-08-18T05:13:17.750Z,14.08
2018-08-18T05:16:22.458Z,14.18
2018-08-18T05:19:28.079Z,14.24
2018-08-18T05:22:32.922Z,14.29
2018-08-18T05:25:40.863Z,14.30
2018-08-18T05:28:46.777Z,14.30
2018-08-18T05:31:52.562Z,14.32
2018-08-18T05:34:57.477Z,14.37
2018-08-18T05:38:02.603Z,14.46
2018-08-18T05:41:06.861Z,14.57
2018-08-18T05:44:11.165Z,14.75
2018-08-18T05:47:15.573Z,14.92
2018-08-18T05:50:19.997Z,15.10
2018-08-18T05:53:25.481Z,15.29
2018-08-18T05:56:29.706Z,15.39
2018-08-18T05:59:35.788Z,15.55
2018-08-18T06:02:44.547Z,15.61
2018-08-18T06:05:48.959Z,15.71
2018-08-18T06:08:53.225Z,15.87
2018-08-18T06:11:59.249Z,15.97
2018-08-18T06:15:04.510Z,16.06
2018-08-18T06:18:09.134Z,16.16
2018-08-18T06:21:47.230Z,16.31
2018-08-18T06:24:52.550Z,16.46
2018-08-18T06:27:56.908Z,16.61
2018-08-18T06:31:02.775Z,16.79
2018-08-18T06:34:07.262Z,16.92
2018-08-18T06:37:13.198Z,17.07
2018-08-18T06:40:17.830Z,17.20
2018-08-18T06:43:23.244Z,17.30
2018-08-18T06:46:29.927Z,17.44
2018-08-18T06:49:34.437Z,17.54
2018-08-18T06:52:38.866Z,17.69
2018-08-18T06:55:44.347Z,17.81
2018-08-18T06:58:51.252Z,17.89
2018-08-18T07:01:56.626Z,17.99
2018-08-18T07:05:01.577Z,18.03
2018-08-18T07:08:06.439Z,18.12
2018-08-18T07:11:11.194Z,18.17
2018-08-18T07:14:15.468Z,18.32
2018-08-18T07:17:19.718Z,18.49
2018-08-18T07:20:24.206Z,18.63
2018-08-18T07:23:28.460Z,18.71
2018-08-18T07:26:32.674Z,18.86
2018-08-18T07:29:50.161Z,19.05
2018-08-18T07:32:54.405Z,19.25
2018-08-18T07:35:58.677Z,19.34
2018-08-18T07:39:02.966Z,19.31
2018-08-18T07:42:07.256Z,19.32
2018-08-18T07:45:11.510Z,19.27
2018-08-18T07:48:15.752Z,19.19
2018-08-18T07:51:19.975Z,19.15
2018-08-18T07:54:24.201Z,19.12
2018-08-18T07:57:28.728Z,19.09
2018-08-18T08:00:35.192Z,19.02
2018-08-18T08:03:39.437Z,19.02
2018-08-18T08:06:43.688Z,19.06
2018-08-18T08:09:48.080Z,19.12
2018-08-18T08:12:52.308Z,19.16
2018-08-18T08:15:56.573Z,19.19
2018-08-18T08:19:00.801Z,19.24
2018-08-18T08:22:05.035Z,19.28
2018-08-18T08:25:10.454Z,19.32
2018-08-18T08:28:14.704Z,19.34
2018-08-18T08:31:18.945Z,19.42
2018-08-18T08:34:24.369Z,19.50
2018-08-18T08:37:28.662Z,19.58
2018-08-18T08:40:32.886Z,19.65
2018-08-18T08:43:37.187Z,19.75
2018-08-18T08:46:47.308Z,19.84
2018-08-18T08:49:51.921Z,20.06
2018-08-18T08:52:57.347Z,20.18
2018-08-18T08:56:01.588Z,20.26
2018-08-18T08:59:05.848Z,20.39
2018-08-18T09:02:13.052Z,20.66
2018-08-18T09:05:17.609Z,20.85
2018-08-18T09:08:21.858Z,20.86
2018-08-18T09:11:26.315Z,20.84
2018-08-18T09:14:30.625Z,20.78
2018-08-18T09:17:34.868Z,20.95
2018-08-18T09:20:44.060Z,21.07
2018-08-18T09:23:48.294Z,20.95
2018-08-18T09:26:53.735Z,20.72
2018-08-18T09:29:57.997Z,20.70
2018-08-18T09:33:04.665Z,20.95
2018-08-18T09:36:08.968Z,21.01
2018-08-18T09:39:23.168Z,21.07
2018-08-18T09:42:27.420Z,21.29
2018-08-18T09:45:31.732Z,21.61
2018-08-18T09:48:35.967Z,21.85
2018-08-18T09:51:40.212Z,22.02
2018-08-18T09:54:44.476Z,21.96
2018-08-18T09:57:48.706Z,21.86
2018-08-18T10:00:52.949Z,21.83
2018-08-18T10:03:57.258Z,21.87
2018-08-18T10:07:01.512Z,21.91
2018-08-18T10:10:07.785Z,21.82
2018-08-18T10:13:12.082Z,21.77
2018-08-18T10:16:16.341Z,21.79
2018-08-18T10:19:20.585Z,21.80
2018-08-18T10:22:24.801Z,21.72
2018-08-18T10:25:29.040Z,21.68
2018-08-18T10:28:33.281Z,21.67
2018-08-18T10:31:41.618Z,21.66
2018-08-18T10:34:45.861Z,21.56
2018-08-18T10:37:50.105Z,21.58
2018-08-18T10:40:54.370Z,21.77
2018-08-18T10:43:58.609Z,21.96
2018-08-18T10:47:14.322Z,22.23
2018-08-18T10:51:39.564Z,22.34
2018-08-18T10:54:43.766Z,22.52
2018-08-18T11:01:01.173Z,22.49
2018-08-18T11:04:05.433Z,22.31
2018-08-18T11:07:09.682Z,22.23
2018-08-18T11:10:13.916Z,22.32
2018-08-18T11:13:18.197Z,22.34
2018-08-18T11:16:22.468Z,22.37
2018-08-18T11:19:26.727Z,22.43
2018-08-18T11:23:11.289Z,22.46
2018-08-18T11:26:15.525Z,22.31
2018-08-18T11:29:20.264Z,22.17
2018-08-18T11:32:24.502Z,22.08
2018-08-18T11:35:29.206Z,22.30
2018-08-18T11:38:34.344Z,22.35
2018-08-18T11:41:38.637Z,22.42
2018-08-18T11:44:42.841Z,22.49
2018-08-18T11:48:14.571Z,22.41
2018-08-18T11:51:18.796Z,22.43
2018-08-18T11:54:23.059Z,22.49
2018-08-18T11:57:27.301Z,22.64
2018-08-18T12:00:39.668Z,22.74
2018-08-18T12:03:43.880Z,22.76
2018-08-18T12:06:53.338Z,22.65
2018-08-18T12:09:57.579Z,22.66
2018-08-18T12:13:01.837Z,22.53
2018-08-18T12:16:12.849Z,22.60
2018-08-18T12:19:17.176Z,22.52
2018-08-18T12:22:21.424Z,22.60
2018-08-18T12:25:25.644Z,22.63
2018-08-18T12:28:35.257Z,22.48
2018-08-18T12:31:39.834Z,22.49
2018-08-18T12:34:44.598Z,22.48
2018-08-18T12:37:49.470Z,22.50
2018-08-18T12:40:53.805Z,22.42
2018-08-18T12:43:59.066Z,22.36
2018-08-18T12:47:04.047Z,22.32
2018-08-18T12:50:08.469Z,22.35
2018-08-18T12:53:12.685Z,22.51
2018-08-18T12:56:19.628Z,22.59
2018-08-18T12:59:23.978Z,22.76
2018-08-18T13:02:43.385Z,22.85
2018-08-18T13:05:47.649Z,22.94
2018-08-18T13:08:52.178Z,22.83
2018-08-18T13:11:57.992Z,22.79
2018-08-18T13:15:02.254Z,22.83
2018-08-18T13:18:06.564Z,22.81
2018-08-18T13:21:10.897Z,22.77
2018-08-18T13:24:15.264Z,22.67
2018-08-18T13:27:19.473Z,22.53
2018-08-18T13:30:24.506Z,22.52
2018-08-18T13:33:32.886Z,22.37
2018-08-18T13:36:38.565Z,22.33
2018-08-18T13:39:42.841Z,22.28
2018-08-18T13:42:47.064Z,22.21
2018-08-18T13:45:51.313Z,22.15
2018-08-18T13:49:00.747Z,22.04
2018-08-18T13:52:05.008Z,21.89
2018-08-18T13:55:10.315Z,21.72
2018-08-18T13:58:14.520Z,21.58
2018-08-18T14:01:38.953Z,21.44
2018-08-18T14:04:43.880Z,21.23
2018-08-18T14:07:57.434Z,21.16
2018-08-18T14:11:01.735Z,21.16
2018-08-18T14:14:05.897Z,21.16
2018-08-18T14:17:11.392Z,21.16
2018-08-18T14:20:15.649Z,21.21
2018-08-18T14:23:21.097Z,21.31
2018-08-18T14:26:25.459Z,21.41
2018-08-18T14:29:31.217Z,21.45
2018-08-18T14:32:35.506Z,21.48
2018-08-18T14:35:39.732Z,21.38
2018-08-18T14:38:45.722Z,21.30
2018-08-18T14:41:49.956Z,21.25
2018-08-18T14:44:57.372Z,21.24
2018-08-18T14:48:01.578Z,21.24
2018-08-18T14:51:05.776Z,21.20
2018-08-18T14:54:10.028Z,21.21
2018-08-18T14:57:14.441Z,21.29
2018-08-18T15:00:19.273Z,21.31
2018-08-18T15:03:23.512Z,21.30
2018-08-18T15:06:27.760Z,21.36
2018-08-18T15:09:42.553Z,21.36
2018-08-18T15:12:46.732Z,21.43
2018-08-18T15:15:50.924Z,21.43
2018-08-18T15:18:55.149Z,21.57
2018-08-18T15:22:00.353Z,21.73
2018-08-18T15:25:04.627Z,21.91
2018-08-18T15:28:10.105Z,21.96
2018-08-18T15:31:14.332Z,21.96
2018-08-18T15:34:18.556Z,21.91
2018-08-18T15:37:22.756Z,21.69
2018-08-18T15:40:28.407Z,21.57
2018-08-18T15:43:32.614Z,21.54
2018-08-18T15:46:36.830Z,21.51
2018-08-18T15:49:41.584Z,21.44
2018-08-18T15:52:47.002Z,21.30
2018-08-18T15:55:51.204Z,21.26
2018-08-18T15:58:56.197Z,21.21
2018-08-18T16:02:00.417Z,21.21
2018-08-18T16:05:04.652Z,21.18
2018-08-18T16:08:08.966Z,21.13
2018-08-18T16:11:13.480Z,21.17
2018-08-18T16:14:17.753Z,21.27
2018-08-18T16:17:22.046Z,21.42
2018-08-18T16:20:27.374Z,21.47
2018-08-18T16:23:31.657Z,21.46
2018-08-18T16:26:35.916Z,21.35
2018-08-18T16:29:40.508Z,21.26
2018-08-18T16:32:45.277Z,21.22
2018-08-18T16:35:49.646Z,21.11
2018-08-18T16:38:53.913Z,20.95
2018-08-18T16:41:58.150Z,20.93
2018-08-18T16:45:02.426Z,20.85
2018-08-18T16:48:08.505Z,20.78
2018-08-18T16:51:12.807Z,20.78
2018-08-18T16:54:22.681Z,20.73
2018-08-18T16:57:26.916Z,20.67
2018-08-18T17:00:31.713Z,20.68
2018-08-18T17:03:36.245Z,20.68
2018-08-18T17:06:40.479Z,20.68
2018-08-18T17:09:44.728Z,20.66
2018-08-18T17:12:48.977Z,20.68
2018-08-18T17:15:53.208Z,20.62
2018-08-18T17:18:57.497Z,20.58
2018-08-18T17:22:01.755Z,20.60
2018-08-18T17:25:08.217Z,20.55
2018-08-18T17:28:12.910Z,20.51
2018-08-18T17:31:17.160Z,20.52
2018-08-18T17:34:21.419Z,20.54
2018-08-18T17:37:25.697Z,20.50
2018-08-18T17:40:29.965Z,20.46
2018-08-18T17:43:34.196Z,20.40
2018-08-18T17:46:42.528Z,20.39
2018-08-18T17:49:52.079Z,20.32
2018-08-18T17:52:56.344Z,20.29
2018-08-18T17:56:06.012Z,20.27
2018-08-18T17:59:10.269Z,20.27
2018-08-18T18:02:16.057Z,20.29
2018-08-18T18:05:25.630Z,20.26
2018-08-18T18:08:29.853Z,20.19
2018-08-18T18:11:34.152Z,20.22
2018-08-18T18:14:38.415Z,20.19
2018-08-18T18:17:42.711Z,20.19
2018-08-18T18:20:48.097Z,20.16
2018-08-18T18:23:52.366Z,20.12
2018-08-18T18:26:56.636Z,20.11
2018-08-18T18:30:00.901Z,20.06
2018-08-18T18:33:05.395Z,20.02
2018-08-18T18:36:09.633Z,20.00
2018-08-18T18:39:13.894Z,19.97
2018-08-18T18:42:18.122Z,19.92
2018-08-18T18:45:25.086Z,19.88
2018-08-18T18:48:29.347Z,19.82
2018-08-18T18:51:33.609Z,19.79
2018-08-18T18:54:37.858Z,19.77
2018-08-18T18:58:03.089Z,19.73
2018-08-18T19:01:07.350Z,19.73
2018-08-18T19:04:11.601Z,19.67
2018-08-18T19:07:15.874Z,19.62
2018-08-18T19:10:22.362Z,19.63
2018-08-18T19:13:27.521Z,19.55
2018-08-18T19:16:31.764Z,19.51
2018-08-18T19:19:36.085Z,19.46
2018-08-18T19:22:42.681Z,19.42
2018-08-18T19:25:48.404Z,19.35
2018-08-18T19:28:52.721Z,19.30
2018-08-18T19:32:01.182Z,19.26
2018-08-18T19:35:05.478Z,19.22
2018-08-18T19:38:09.873Z,19.16
2018-08-18T19:41:14.169Z,19.14
2018-08-18T19:44:18.712Z,19.08
2018-08-18T19:47:31.157Z,19.06
2018-08-18T19:50:35.504Z,19.04
2018-08-18T19:53:40.356Z,18.97
2018-08-18T19:56:44.681Z,18.95
2018-08-18T19:59:48.986Z,18.97
2018-08-18T20:03:13.182Z,18.94
2018-08-18T20:06:21.905Z,18.92
2018-08-18T20:09:26.189Z,18.88
2018-08-18T20:12:30.493Z,18.84
2018-08-18T20:15:34.764Z,18.79
2018-08-18T20:18:39.097Z,18.75
2018-08-18T20:21:43.330Z,18.72
2018-08-18T20:24:47.568Z,18.67
2018-08-18T20:27:51.913Z,18.66
2018-08-18T20:30:56.234Z,18.67
2018-08-18T20:34:00.506Z,18.65
2018-08-18T20:37:04.859Z,18.62
2018-08-18T20:40:10.108Z,18.55
2018-08-18T20:43:14.422Z,18.51
2018-08-18T20:46:18.737Z,18.45
2018-08-18T20:49:23.039Z,18.40
2018-08-18T20:52:28.449Z,18.34
2018-08-18T20:55:32.746Z,18.30
2018-08-18T20:58:36.997Z,18.27
2018-08-18T21:01:41.245Z,18.25
2018-08-18T21:04:50.512Z,18.20
2018-08-18T21:07:54.820Z,18.22
2018-08-18T21:10:59.156Z,18.21
2018-08-18T21:14:03.404Z,18.19
2018-08-18T21:17:07.703Z,18.13
2018-08-18T21:20:15.868Z,18.05
2018-08-18T21:23:24.124Z,17.99
2018-08-18T21:26:28.546Z,17.98
2018-08-18T21:29:32.724Z,17.93
2018-08-18T21:32:37.042Z,17.91
2018-08-18T21:35:41.509Z,17.84
2018-08-18T21:38:45.757Z,17.79
2018-08-18T21:41:50.073Z,17.78
2018-08-18T21:44:55.581Z,17.74
2018-08-18T21:47:59.943Z,17.73
2018-08-18T21:51:04.253Z,17.67
2018-08-18T21:54:08.727Z,17.66
2018-08-18T21:57:13.165Z,17.65
2018-08-18T22:00:17.437Z,17.64
2018-08-18T22:03:21.742Z,17.63
2018-08-18T22:06:26.079Z,17.58
2018-08-18T22:09:30.357Z,17.52
2018-08-18T22:12:34.641Z,17.50
2018-08-18T22:15:38.948Z,17.50
2018-08-18T22:19:03.636Z,17.48
2018-08-18T22:22:08.576Z,17.48
2018-08-18T22:25:13.047Z,17.44
2018-08-18T22:28:17.347Z,17.42
2018-08-18T22:31:21.647Z,17.44
2018-08-18T22:34:25.952Z,17.47
2018-08-18T22:37:30.224Z,17.51
2018-08-18T22:40:35.717Z,17.54
2018-08-18T22:43:40.103Z,17.59
2018-08-18T22:46:44.416Z,17.65
2018-08-18T22:49:48.749Z,17.71
2018-08-18T22:52:54.073Z,17.77
2018-08-18T22:55:58.320Z,17.79
2018-08-18T22:59:03.289Z,17.81
2018-08-18T23:02:07.544Z,17.87
2018-08-18T23:05:11.789Z,17.88
2018-08-18T23:08:16.025Z,17.94
2018-08-18T23:11:20.285Z,17.95
2018-08-18T23:14:24.555Z,17.95
2018-08-18T23:17:28.768Z,17.96
2018-08-18T23:20:33.159Z,17.99
2018-08-18T23:23:37.261Z,18.06
2018-08-18T23:26:41.478Z,18.08
2018-08-18T23:29:45.718Z,18.08
2018-08-18T23:32:49.970Z,18.11
2018-08-18T23:35:54.234Z,18.14
2018-08-18T23:38:58.493Z,18.15
2018-08-18T23:42:15.963Z,18.14
2018-08-18T23:45:20.201Z,18.12
2018-08-18T23:48:24.465Z,18.11
2018-08-18T23:51:34.812Z,18.10
2018-08-18T23:54:39.088Z,18.09
2018-08-18T23:57:43.320Z,18.07
